首页
METAR-TAF:

METAR-TAF

机场 :

芝加哥, 伊利诺伊州, 美国

奥黑尔国际机场

纬度: 41-58-47N, 经度: 087-54-16W, 海拔: 203米

当前天气观测

该预报发布于1小时和11分钟前的22:51 UTC
风速15节,风向西南,有时为21节阵风
温度 -7°C
湿度 62%
气压 1028 hPa
能見度: 16.1公里
散云层高于18000英尺
多云层高于25000英尺

METAR: KORD 172251Z 23015G21KT 10SM SCT180 BKN250 M07/M13 A3036 RMK AO2 SLP294 T10671133

时间: 18:02 (00:02 UTC)

预报

该预报发布于32分钟前的23:30 UTC
预报有效从18日的 00点(UTC)到 19日的 06点(UTC)
风速14节,风向西南,有时为19节阵风
能見度: 10公里
散云层高于15000英尺
从 18日的 1400点(UTC)
风速14节,风向西转西南,有时为22节阵风
能見度: 10公里
少量云层高于25000英尺
从 18日的 1800点(UTC)
风速15节,风向西转西南,有时为24节阵风
能見度: 10公里
少量云层高于25000英尺
从 19日的 0000点(UTC)
风速11节,风向西南
能見度: 10公里
天空无云

TAF: KORD 172330Z 1800/1906 23014G19KT P6SM SCT150 WS020/24050KT FM181400 24014G22KT P6SM FEW250 FM181800 24015G24KT P6SM FEW250 FM190000 23011KT P6SM SKC

超过4000个机场的气象观测和天气预报(METAR&TAF报告)。

可查询的气象台以黄色和红色小点在地图上表示。

将鼠标移到小点上方,可查看气象台名称。

然后点击查看天气观测和预报。

如需切换地图:点击带黑十字的绿色按钮放大地图;点击带横线的绿色按钮缩小地图;或者点击绿色箭头查看邻近地区的地图。


METAR-TAF: